Time;durP1;ratioP1;P1;durP2;ratioP2;P2;SDS_P1;SDS_P2;PMS_P1;PMS_P2;Temp;Humidity;BMP_temperature;BMP_pressure;BME280_temperature;BME280_humidity;BME280_pressure;Samples;Min_cycle;Max_cycle;Signal;HPM_P1;HPM_P2
2022/06/07 00:00:59;;;;;;;2.75;1.38;;;20.20;99.90;;;;;;5033288;28;20268;-57
2022/06/07 00:03:26;;;;;;;2.53;1.50;;;20.20;99.90;;;;;;5033415;28;20223;-57
2022/06/07 00:05:53;;;;;;;5.07;1.30;;;20.20;99.90;;;;;;5033550;28;20206;-57
2022/06/07 00:08:20;;;;;;;1.88;1.27;;;20.20;99.90;;;;;;5033197;28;20233;-56
2022/06/07 00:10:47;;;;;;;2.28;1.45;;;20.20;99.90;;;;;;5033026;28;20237;-57
2022/06/07 00:13:14;;;;;;;3.25;1.10;;;20.30;99.90;;;;;;5033147;28;20578;-56
2022/06/07 00:15:42;;;;;;;2.08;1.33;;;20.20;99.90;;;;;;5033177;28;20590;-56
2022/06/07 00:18:11;;;;;;;3.88;1.20;;;20.20;99.90;;;;;;5033297;28;20198;-57
2022/06/07 00:20:38;;;;;;;6.60;1.42;;;20.10;99.90;;;;;;5033196;28;20598;-57
2022/06/07 00:23:08;;;;;;;2.35;1.10;;;20.20;99.90;;;;;;5033158;28;20213;-56
2022/06/07 00:25:35;;;;;;;2.42;1.42;;;20.10;99.90;;;;;;5033153;28;20595;-56
2022/06/07 00:28:02;;;;;;;1.17;1.08;;;20.10;99.90;;;;;;5032933;28;20218;-57
2022/06/07 00:30:30;;;;;;;2.15;1.05;;;20.10;99.90;;;;;;5032606;28;20272;-57
2022/06/07 00:32:57;;;;;;;1.48;1.30;;;20.10;99.90;;;;;;5033031;28;20214;-56
2022/06/07 00:35:25;;;;;;;2.42;1.25;;;20.10;99.90;;;;;;5033174;28;20589;-57
2022/06/07 00:37:52;;;;;;;2.33;1.17;;;20.00;99.90;;;;;;5032837;28;20617;-57
2022/06/07 00:40:19;;;;;;;2.15;1.17;;;20.10;99.90;;;;;;5032704;28;20230;-57
2022/06/07 00:42:46;;;;;;;2.15;1.20;;;20.00;99.90;;;;;;5032615;28;20210;-57
2022/06/07 00:45:15;;;;;;;2.13;1.35;;;20.00;99.90;;;;;;5032879;28;20220;-57
2022/06/07 00:47:42;;;;;;;1.23;1.05;;;20.00;99.90;;;;;;5032743;28;20317;-57
2022/06/07 00:50:14;;;;;;;4.00;1.40;;;20.00;99.90;;;;;;5032533;28;20234;-56
2022/06/07 00:52:42;;;;;;;2.33;1.40;;;19.90;99.90;;;;;;5032495;28;20265;-56
2022/06/07 00:55:09;;;;;;;1.17;1.00;;;19.90;99.90;;;;;;5032516;28;20261;-56
2022/06/07 00:57:37;;;;;;;1.92;1.25;;;19.90;99.90;;;;;;5032423;28;20206;-57
2022/06/07 01:00:05;;;;;;;1.38;1.15;;;19.90;99.90;;;;;;5032623;28;20317;-57
2022/06/07 01:02:31;;;;;;;1.33;1.10;;;19.90;99.90;;;;;;5032272;28;20295;-56
2022/06/07 01:04:58;;;;;;;2.15;1.40;;;19.80;99.90;;;;;;5032141;28;20243;-56
2022/06/07 01:12:54;;;;;;;3.67;1.13;;;19.80;99.90;;;;;;5032372;28;20256;-56
2022/06/07 01:15:21;;;;;;;1.95;1.02;;;19.70;99.90;;;;;;5032344;28;20205;-56
2022/06/07 01:17:48;;;;;;;2.28;1.20;;;19.60;99.90;;;;;;5032320;28;20625;-57
2022/06/07 01:20:15;;;;;;;1.75;1.30;;;19.70;99.90;;;;;;5032139;28;20230;-57
2022/06/07 01:22:43;;;;;;;1.50;1.00;;;19.70;99.90;;;;;;5031885;28;20218;-57
2022/06/07 01:25:10;;;;;;;1.25;1.00;;;19.60;99.90;;;;;;5032273;28;20263;-58
2022/06/07 01:27:37;;;;;;;1.42;1.00;;;19.60;99.90;;;;;;5031893;28;20728;-57
2022/06/07 01:30:06;;;;;;;1.88;1.02;;;19.70;99.90;;;;;;5031850;28;20296;-58
2022/06/07 01:32:33;;;;;;;4.95;1.13;;;19.70;99.90;;;;;;5031689;28;20209;-57
2022/06/07 01:35:00;;;;;;;1.30;0.95;;;19.60;99.90;;;;;;5032013;28;20469;-56
2022/06/07 01:37:26;;;;;;;2.30;0.98;;;19.60;99.90;;;;;;5031831;28;20682;-56
2022/06/07 01:42:39;;;;;;;3.15;1.10;;;19.60;99.90;;;;;;5031678;28;20205;-56
2022/06/07 01:45:06;;;;;;;2.70;0.90;;;19.50;99.90;;;;;;5031921;28;20210;-56
2022/06/07 01:47:35;;;;;;;2.70;0.88;;;19.50;99.90;;;;;;5031654;28;20226;-57
2022/06/07 01:50:02;;;;;;;1.33;0.93;;;19.50;99.90;;;;;;5031983;28;20230;-56
2022/06/07 01:52:31;;;;;;;2.50;1.10;;;19.40;99.90;;;;;;5031759;28;20586;-57
2022/06/07 01:54:59;;;;;;;1.67;0.93;;;19.50;99.90;;;;;;5032052;28;20288;-56
2022/06/07 01:57:26;;;;;;;1.17;0.90;;;19.50;99.90;;;;;;5031841;28;20202;-57
2022/06/07 01:59:54;;;;;;;1.73;1.10;;;19.50;99.90;;;;;;5031650;28;20714;-58
2022/06/07 02:02:24;;;;;;;1.90;1.02;;;19.40;99.90;;;;;;5031679;28;20646;-57
2022/06/07 02:04:51;;;;;;;1.20;0.60;;;19.40;99.90;;;;;;5031978;28;20202;-57
2022/06/07 02:07:19;;;;;;;1.80;0.90;;;19.40;99.90;;;;;;5031906;28;20226;-56
2022/06/07 02:09:46;;;;;;;2.00;0.98;;;19.40;99.90;;;;;;5031713;28;20222;-57
2022/06/07 02:12:14;;;;;;;2.17;0.73;;;19.30;99.90;;;;;;5032357;28;20217;-59
2022/06/07 02:14:40;;;;;;;13.55;6.60;;;19.30;99.90;;;;;;5032283;28;20206;-57
2022/06/07 02:17:08;;;;;;;13.48;7.55;;;19.30;99.90;;;;;;5032906;28;20260;-59
2022/06/07 02:19:35;;;;;;;2.35;1.20;;;19.30;99.90;;;;;;5035770;28;20321;-58
2022/06/07 02:22:02;;;;;;;7.28;1.40;;;19.30;99.90;;;;;;5035365;28;20218;-57
2022/06/07 02:24:29;;;;;;;1.38;1.05;;;19.20;99.90;;;;;;5035534;28;20464;-56
2022/06/07 02:27:01;;;;;;;2.42;1.08;;;19.20;99.90;;;;;;5035288;28;20256;-57
2022/06/07 02:29:34;;;;;;;1.30;0.85;;;19.10;99.90;;;;;;5035155;28;20230;-58
2022/06/07 02:32:04;;;;;;;2.25;1.20;;;19.00;99.90;;;;;;5035405;28;20210;-57
2022/06/07 02:34:31;;;;;;;1.17;0.75;;;18.90;99.90;;;;;;5035255;28;20202;-56
2022/06/07 02:37:01;;;;;;;1.48;1.05;;;18.90;99.90;;;;;;5035181;28;20213;-57
2022/06/07 02:39:29;;;;;;;2.70;1.55;;;18.80;99.90;;;;;;5034915;28;20226;-57
2022/06/07 02:41:58;;;;;;;2.70;2.08;;;18.80;99.90;;;;;;5034738;28;20268;-57
2022/06/07 02:44:25;;;;;;;3.70;0.93;;;18.70;99.90;;;;;;5035061;28;20211;-57
2022/06/07 02:46:53;;;;;;;1.75;1.30;;;18.70;99.90;;;;;;5034900;28;20564;-56
2022/06/07 02:49:20;;;;;;;2.67;1.10;;;18.60;99.90;;;;;;5034732;28;20663;-58
2022/06/07 02:51:46;;;;;;;1.92;1.10;;;18.50;99.90;;;;;;5034691;28;20210;-56
2022/06/07 02:54:13;;;;;;;4.25;1.25;;;18.50;99.90;;;;;;5034691;28;20210;-57
2022/06/07 02:56:40;;;;;;;1.20;0.98;;;18.40;99.90;;;;;;5034709;28;20685;-56
2022/06/07 02:59:07;;;;;;;2.92;1.20;;;18.30;99.90;;;;;;5034810;28;20223;-57
2022/06/07 03:01:33;;;;;;;3.05;2.40;;;18.20;99.90;;;;;;5034609;28;20210;-56
2022/06/07 03:04:01;;;;;;;48.10;35.60;;;18.20;99.90;;;;;;5034561;28;20236;-57
2022/06/07 03:06:28;;;;;;;3.00;1.88;;;18.20;99.90;;;;;;5034724;28;20625;-58
2022/06/07 03:08:55;;;;;;;1.90;1.20;;;18.20;99.90;;;;;;5034627;28;20248;-57
2022/06/07 03:11:22;;;;;;;2.05;1.20;;;18.20;99.90;;;;;;5034471;28;20215;-57
2022/06/07 03:13:49;;;;;;;2.72;1.42;;;18.10;99.90;;;;;;5034741;28;20213;-57
2022/06/07 03:16:16;;;;;;;5.07;1.20;;;18.10;99.90;;;;;;5034385;28;20202;-57
2022/06/07 03:18:43;;;;;;;5.03;3.67;;;18.10;99.90;;;;;;5034300;28;20385;-57
2022/06/07 03:21:11;;;;;;;3.83;2.80;;;18.20;99.90;;;;;;5034291;28;20556;-56
2022/06/07 03:23:38;;;;;;;2.90;2.47;;;18.20;99.90;;;;;;5034459;28;20214;-56
2022/06/07 03:26:06;;;;;;;2.47;2.25;;;18.20;99.90;;;;;;5034321;28;20218;-55
2022/06/07 03:28:32;;;;;;;3.08;2.65;;;18.30;99.90;;;;;;5033770;28;20226;-57
2022/06/07 03:31:05;;;;;;;2.78;1.63;;;18.30;99.90;;;;;;5033902;28;20206;-57
2022/06/07 03:33:33;;;;;;;5.20;3.75;;;18.40;99.90;;;;;;5034060;28;20293;-56
2022/06/07 03:36:08;;;;;;;9.00;4.15;;;18.40;99.90;;;;;;5034089;28;20219;-57
2022/06/07 03:38:36;;;;;;;2.85;1.88;;;18.40;99.90;;;;;;5034077;28;20642;-56
2022/06/07 03:41:03;;;;;;;7.35;4.32;;;18.50;99.90;;;;;;5033514;28;20631;-57
2022/06/07 03:43:30;;;;;;;4.90;2.63;;;18.50;99.90;;;;;;5033695;28;20229;-58
2022/06/07 03:45:56;;;;;;;2.67;1.55;;;18.50;99.90;;;;;;5033858;28;20206;-57
2022/06/07 03:48:23;;;;;;;1.88;1.10;;;18.50;99.90;;;;;;5033457;28;20226;-56
2022/06/07 03:50:50;;;;;;;3.13;1.73;;;18.50;99.90;;;;;;5033847;28;20623;-57
2022/06/07 03:53:17;;;;;;;2.65;1.13;;;18.50;99.90;;;;;;5033644;28;20692;-56
2022/06/07 03:55:47;;;;;;;1.73;0.80;;;18.50;99.90;;;;;;5033686;28;20210;-58
2022/06/07 03:58:15;;;;;;;2.80;1.00;;;18.50;99.90;;;;;;5033705;28;20206;-57
2022/06/07 04:00:41;;;;;;;5.28;2.17;;;18.50;99.90;;;;;;5033750;28;20234;-57
2022/06/07 04:03:08;;;;;;;3.80;1.30;;;18.60;99.90;;;;;;5033573;28;20568;-58
2022/06/07 04:05:39;;;;;;;2.17;1.52;;;18.60;99.90;;;;;;5033347;28;20725;-57
2022/06/07 04:08:13;;;;;;;3.45;2.25;;;18.60;99.90;;;;;;5033544;28;20313;-58
2022/06/07 04:10:47;;;;;;;2.35;1.40;;;18.70;99.90;;;;;;5033316;28;20322;-57
2022/06/07 04:13:15;;;;;;;0.70;0.70;;;18.80;99.90;;;;;;5033288;28;20260;-58
2022/06/07 04:15:41;;;;;;;2.05;0.90;;;18.80;99.90;;;;;;5033478;28;20260;-56
2022/06/07 04:18:08;;;;;;;0.75;0.65;;;18.90;99.90;;;;;;5033229;28;20545;-57
2022/06/07 04:20:36;;;;;;;1.05;0.95;;;18.90;99.90;;;;;;5033261;28;20693;-58
2022/06/07 04:23:02;;;;;;;5.85;2.67;;;19.10;99.90;;;;;;5032911;28;20210;-57
2022/06/07 04:25:29;;;;;;;2.38;1.10;;;19.10;99.90;;;;;;5033174;28;20283;-56
2022/06/07 04:27:57;;;;;;;1.20;0.90;;;19.10;99.90;;;;;;5032889;28;20698;-57
2022/06/07 04:30:24;;;;;;;1.77;0.88;;;19.20;99.90;;;;;;5033095;28;20246;-57
2022/06/07 04:32:51;;;;;;;1.60;0.90;;;19.20;99.90;;;;;;5032892;28;20202;-58
2022/06/07 04:35:18;;;;;;;1.08;0.90;;;19.10;99.90;;;;;;5032975;28;20264;-57
2022/06/07 04:37:45;;;;;;;2.13;0.90;;;19.00;99.90;;;;;;5032782;28;20206;-57
2022/06/07 04:40:13;;;;;;;2.40;1.30;;;19.00;99.90;;;;;;5032240;28;20222;-56
2022/06/07 04:42:39;;;;;;;1.23;0.90;;;18.90;99.90;;;;;;5032441;28;20213;-56
2022/06/07 04:45:11;;;;;;;1.90;1.00;;;18.80;99.90;;;;;;5032818;28;20332;-56
2022/06/07 04:47:38;;;;;;;3.40;1.20;;;18.90;99.90;;;;;;5032632;28;20571;-57
2022/06/07 04:50:06;;;;;;;1.33;0.90;;;18.80;99.90;;;;;;5032829;28;20360;-57
2022/06/07 04:52:33;;;;;;;1.85;1.33;;;19.00;99.90;;;;;;5032385;28;20210;-58
2022/06/07 04:55:00;;;;;;;2.55;0.88;;;19.10;99.90;;;;;;5032526;28;20210;-57
2022/06/07 04:57:26;;;;;;;3.22;1.00;;;19.10;99.90;;;;;;5032836;28;20206;-57
2022/06/07 04:59:53;;;;;;;1.20;0.90;;;19.20;99.90;;;;;;5032772;28;20281;-58
2022/06/07 05:02:21;;;;;;;2.63;0.80;;;19.30;99.90;;;;;;5033319;28;20213;-57
2022/06/07 05:04:48;;;;;;;1.73;1.15;;;19.30;99.90;;;;;;5033590;28;20206;-57
2022/06/07 05:07:15;;;;;;;1.55;1.05;;;19.30;99.90;;;;;;5035051;28;20260;-57
2022/06/07 05:09:42;;;;;;;3.70;1.40;;;19.30;99.90;;;;;;5032318;28;20608;-57
2022/06/07 05:12:09;;;;;;;1.60;1.00;;;19.30;99.90;;;;;;5032382;28;20264;-56
2022/06/07 05:14:36;;;;;;;1.42;1.10;;;19.30;99.90;;;;;;5032470;28;20207;-58
2022/06/07 05:17:04;;;;;;;2.05;1.10;;;19.30;99.90;;;;;;5032114;28;20284;-56
2022/06/07 05:19:33;;;;;;;2.05;1.15;;;19.40;99.90;;;;;;5032371;28;20222;-57
2022/06/07 05:22:01;;;;;;;1.42;1.02;;;19.40;99.90;;;;;;5032470;28;20293;-58
2022/06/07 05:24:28;;;;;;;1.83;1.00;;;19.40;99.90;;;;;;5032330;28;20288;-58
2022/06/07 05:26:57;;;;;;;2.13;1.02;;;19.50;99.90;;;;;;5032512;28;20217;-57
2022/06/07 05:29:28;;;;;;;2.35;1.50;;;19.60;99.90;;;;;;5056013;23;20230;-62
2022/06/07 05:31:55;;;;;;;1.55;0.95;;;19.70;99.90;;;;;;5033292;28;20206;-62
2022/06/07 05:34:22;;;;;;;2.05;1.08;;;19.80;99.90;;;;;;5033655;28;20206;-62
2022/06/07 05:36:50;;;;;;;3.50;1.10;;;19.80;99.90;;;;;;5033970;28;20202;-62
2022/06/07 05:39:24;;;;;;;7.43;1.30;;;19.80;99.90;;;;;;5034050;28;20230;-63
2022/06/07 05:41:51;;;;;;;2.03;1.00;;;19.90;99.90;;;;;;5034390;28;20209;-62
2022/06/07 05:44:18;;;;;;;2.45;1.00;;;19.90;99.90;;;;;;5034311;28;20292;-63
2022/06/07 05:46:45;;;;;;;2.60;1.48;;;19.90;99.90;;;;;;5033369;28;20206;-63
2022/06/07 05:49:13;;;;;;;8.40;1.88;;;19.90;99.90;;;;;;5033431;28;20313;-63
2022/06/07 05:51:40;;;;;;;4.15;1.20;;;19.90;99.90;;;;;;5033577;28;20212;-63
2022/06/07 05:54:09;;;;;;;2.70;1.05;;;19.90;99.90;;;;;;5038821;28;20210;-63
2022/06/07 05:56:35;;;;;;;2.47;1.27;;;19.90;99.90;;;;;;5039460;28;20260;-63
2022/06/07 05:59:05;;;;;;;4.60;2.00;;;19.90;99.90;;;;;;5038391;28;20202;-63
2022/06/07 06:01:32;;;;;;;1.88;1.10;;;19.90;99.90;;;;;;5037623;28;20209;-62
2022/06/07 06:03:59;;;;;;;3.92;1.20;;;20.00;99.90;;;;;;5037576;28;20206;-63
2022/06/07 06:06:26;;;;;;;1.85;1.08;;;20.10;99.90;;;;;;5038421;28;20202;-62
2022/06/07 06:11:38;;;;;;;2.95;1.33;;;20.70;99.90;;;;;;5037705;28;20208;-61
2022/06/07 06:14:05;;;;;;;4.10;1.35;;;21.00;99.90;;;;;;5038358;28;20213;-61
2022/06/07 06:16:32;;;;;;;2.08;1.40;;;21.40;99.90;;;;;;5038410;28;20205;-62
2022/06/07 06:19:00;;;;;;;5.90;1.38;;;21.90;99.90;;;;;;5037667;28;20617;-62
2022/06/07 06:21:29;;;;;;;1.42;0.98;;;22.30;99.90;;;;;;5037975;28;20217;-62
2022/06/07 06:23:58;;;;;;;3.70;1.15;;;22.60;99.90;;;;;;5037248;28;20318;-63
2022/06/07 06:26:26;;;;;;;3.47;0.88;;;22.90;99.90;;;;;;5038494;28;20206;-62
2022/06/07 06:28:55;;;;;;;2.97;1.58;;;23.20;99.90;;;;;;5038568;28;20628;-62
2022/06/07 06:31:22;;;;;;;1.88;1.02;;;23.40;99.90;;;;;;5038147;28;20245;-62
2022/06/07 06:33:51;;;;;;;2.58;1.05;;;23.70;99.90;;;;;;5038589;28;20206;-63
2022/06/07 06:36:20;;;;;;;4.20;0.90;;;24.40;99.90;;;;;;5037322;28;20272;-63
2022/06/07 06:38:46;;;;;;;4.93;1.25;;;25.60;99.40;;;;;;5035978;28;20249;-63
2022/06/07 06:41:15;;;;;;;1.70;1.05;;;26.80;97.30;;;;;;5035982;28;20214;-63
2022/06/07 06:43:42;;;;;;;5.40;1.15;;;28.00;94.30;;;;;;5036637;28;20641;-62
2022/06/07 06:46:13;;;;;;;2.65;1.10;;;28.50;92.80;;;;;;5036140;28;20206;-63
2022/06/07 06:48:41;;;;;;;1.35;0.70;;;28.30;91.80;;;;;;5036169;28;20579;-62
2022/06/07 06:51:10;;;;;;;1.98;1.00;;;27.70;92.30;;;;;;5037894;28;20740;-62
2022/06/07 06:53:37;;;;;;;1.88;0.80;;;27.60;92.80;;;;;;5037338;28;20249;-63
2022/06/07 06:56:05;;;;;;;2.17;1.25;;;27.70;92.10;;;;;;5037877;28;20209;-62
2022/06/07 06:58:32;;;;;;;1.63;0.80;;;28.50;91.20;;;;;;5037460;28;20426;-63
2022/06/07 07:01:03;;;;;;;2.92;0.85;;;30.20;87.60;;;;;;5037985;28;20241;-62
2022/06/07 07:03:33;;;;;;;0.93;0.73;;;32.40;79.80;;;;;;5037335;28;20256;-63
2022/06/07 07:06:01;;;;;;;2.80;1.15;;;34.30;70.80;;;;;;5038744;28;20217;-62
2022/06/07 07:08:29;;;;;;;4.90;1.70;;;34.90;67.60;;;;;;5038258;28;20210;-63
2022/06/07 07:11:04;;;;;;;2.58;0.80;;;35.20;65.60;;;;;;5038592;28;20226;-63
2022/06/07 07:13:31;;;;;;;3.25;0.95;;;35.10;62.80;;;;;;5038806;28;20206;-63
2022/06/07 07:15:58;;;;;;;2.30;0.90;;;34.70;61.10;;;;;;5037527;28;20268;-62
2022/06/07 07:18:25;;;;;;;1.98;0.70;;;34.10;61.40;;;;;;5039237;28;20206;-62
2022/06/07 07:20:53;;;;;;;2.80;1.20;;;34.10;61.20;;;;;;5039751;28;20226;-63
2022/06/07 07:23:21;;;;;;;1.58;0.82;;;34.20;60.90;;;;;;5038864;28;20662;-63
2022/06/07 07:25:49;;;;;;;3.20;0.90;;;34.00;59.80;;;;;;5037133;28;20681;-63
2022/06/07 07:28:16;;;;;;;1.30;0.80;;;33.10;61.80;;;;;;5036209;28;20638;-63
2022/06/07 07:30:43;;;;;;;3.50;1.40;;;32.40;63.70;;;;;;5036376;28;20230;-62
2022/06/07 07:33:10;;;;;;;3.13;2.10;;;31.90;65.40;;;;;;5036653;28;20207;-62
2022/06/07 07:35:36;;;;;;;4.50;2.50;;;32.30;64.20;;;;;;5037152;28;20268;-63
2022/06/07 07:38:04;;;;;;;2.50;1.00;;;32.40;64.00;;;;;;5036889;28;20206;-63
2022/06/07 07:40:31;;;;;;;1.38;0.73;;;32.00;64.70;;;;;;5037217;28;20230;-63
2022/06/07 07:42:58;;;;;;;2.40;0.70;;;31.70;65.50;;;;;;5036512;28;20214;-63
2022/06/07 07:45:26;;;;;;;2.88;2.08;;;31.30;66.00;;;;;;5037127;28;20233;-63
2022/06/07 07:47:52;;;;;;;2.15;0.90;;;30.30;68.60;;;;;;5037494;28;20252;-62
2022/06/07 07:50:19;;;;;;;1.52;0.80;;;29.60;71.20;;;;;;5036250;28;20646;-67
2022/06/07 07:52:46;;;;;;;2.72;2.28;;;29.80;69.40;;;;;;5035891;28;20673;-64
2022/06/07 07:55:14;;;;;;;2.45;1.25;;;30.20;68.30;;;;;;5036351;28;20246;-64
2022/06/07 07:57:41;;;;;;;2.20;1.02;;;30.20;66.60;;;;;;5036275;28;20210;-64
2022/06/07 08:00:10;;;;;;;3.13;1.00;;;30.10;68.10;;;;;;5035493;28;20226;-64
2022/06/07 08:02:36;;;;;;;1.70;1.20;;;30.00;68.30;;;;;;5034600;28;20287;-64
2022/06/07 08:05:04;;;;;;;3.10;0.80;;;29.60;68.80;;;;;;5034822;28;20206;-64
2022/06/07 08:07:30;;;;;;;2.75;0.63;;;29.00;69.30;;;;;;5035277;28;20213;-64
2022/06/07 08:09:57;;;;;;;2.35;0.90;;;27.60;71.80;;;;;;5037416;28;20357;-64
2022/06/07 08:12:27;;;;;;;1.83;0.90;;;26.70;76.10;;;;;;5035841;28;20206;-62
2022/06/07 08:14:53;;;;;;;3.40;1.45;;;27.10;75.60;;;;;;5033518;28;20210;-63
2022/06/07 08:17:20;;;;;;;2.70;1.08;;;27.90;74.80;;;;;;5034215;28;20206;-63
2022/06/07 08:19:47;;;;;;;2.25;0.82;;;28.80;71.70;;;;;;5034643;28;20226;-62
2022/06/07 08:22:14;;;;;;;2.30;0.88;;;29.90;69.50;;;;;;5034214;28;20209;-64
2022/06/07 08:24:41;;;;;;;1.80;0.60;;;30.00;68.20;;;;;;5033931;28;20206;-63
2022/06/07 08:27:09;;;;;;;2.15;0.90;;;30.40;67.60;;;;;;5033623;28;20210;-63
2022/06/07 08:29:38;;;;;;;2.53;1.08;;;30.50;68.00;;;;;;5033288;28;20230;-62
2022/06/07 08:32:05;;;;;;;2.00;1.30;;;31.10;66.50;;;;;;5033420;28;20697;-62
2022/06/07 08:37:37;;;;;;;3.22;1.08;;;30.50;66.40;;;;;;5033560;28;20281;-62
2022/06/07 08:40:10;;;;;;;1.45;0.60;;;29.00;69.10;;;;;;5033047;28;20226;-62
2022/06/07 08:42:38;;;;;;;1.70;0.70;;;27.40;73.60;;;;;;5033018;28;20249;-60
2022/06/07 08:45:12;;;;;;;2.55;0.93;;;26.80;75.80;;;;;;5032692;28;20212;-61
2022/06/07 08:47:42;;;;;;;1.80;1.13;;;26.70;76.50;;;;;;5033038;28;20630;-61
2022/06/07 08:50:17;;;;;;;1.55;0.75;;;26.90;76.70;;;;;;5033102;28;20242;-61
2022/06/07 08:52:45;;;;;;;0.82;0.57;;;27.10;76.80;;;;;;5033011;28;20636;-62
2022/06/07 08:55:19;;;;;;;2.20;0.80;;;27.40;74.40;;;;;;5033502;28;20206;-62
2022/06/07 08:57:54;;;;;;;0.63;0.60;;;27.70;74.40;;;;;;5037892;28;20241;-62
2022/06/07 09:00:24;;;;;;;1.77;0.57;;;27.50;74.50;;;;;;5046622;28;20222;-61
2022/06/07 09:03:20;;;;;;;1.50;0.60;;;27.50;75.40;;;;;;5044624;28;20252;-61
2022/06/07 09:05:53;;;;;;;1.92;0.77;;;27.40;73.30;;;;;;5034111;28;20659;-62
2022/06/07 09:08:20;;;;;;;1.42;0.70;;;27.30;73.40;;;;;;5033178;28;20264;-61
2022/06/07 09:13:36;;;;;;;2.40;0.88;;;27.30;73.90;;;;;;5007041;28;20310;-62
2022/06/07 09:16:05;;;;;;;1.63;0.80;;;26.90;74.20;;;;;;5033072;28;20206;-62
2022/06/07 09:18:33;;;;;;;1.83;0.85;;;26.50;75.90;;;;;;5032350;28;20238;-62
2022/06/07 09:21:07;;;;;;;1.15;0.70;;;26.40;77.70;;;;;;5032690;28;20230;-61
2022/06/07 09:23:40;;;;;;;1.40;0.57;;;26.20;77.60;;;;;;5032357;28;20610;-62
2022/06/07 09:26:20;;;;;;;1.15;0.70;;;26.20;76.30;;;;;;5032411;28;20210;-62
2022/06/07 09:28:49;;;;;;;3.70;1.08;;;25.60;78.40;;;;;;5031890;28;20363;-62
2022/06/07 09:31:21;;;;;;;1.30;0.88;;;25.20;80.40;;;;;;5032299;28;20226;-61
2022/06/07 09:33:52;;;;;;;1.05;0.90;;;24.90;81.00;;;;;;5032362;28;20290;-62
2022/06/07 09:36:22;;;;;;;1.33;0.68;;;24.70;83.10;;;;;;5032680;28;20210;-62
2022/06/07 09:38:55;;;;;;;2.30;1.02;;;24.70;83.50;;;;;;5032097;28;20620;-62
2022/06/07 09:41:37;;;;;;;2.35;0.90;;;25.00;84.10;;;;;;5032147;28;20293;-62
2022/06/07 09:44:13;;;;;;;1.60;0.73;;;25.50;79.70;;;;;;5032146;28;20209;-62
2022/06/07 09:46:42;;;;;;;1.40;0.68;;;25.80;78.80;;;;;;5032240;28;20214;-62
2022/06/07 09:49:26;;;;;;;2.75;0.82;;;25.60;80.20;;;;;;5032171;28;20594;-61
2022/06/07 09:51:53;;;;;;;0.93;0.50;;;25.30;81.30;;;;;;5031622;28;20206;-61
2022/06/07 09:54:22;;;;;;;1.40;0.60;;;25.30;82.60;;;;;;5031954;28;20213;-61
2022/06/07 09:57:02;;;;;;;2.17;0.68;;;25.20;82.30;;;;;;5032365;28;20210;-61
2022/06/07 09:59:43;;;;;;;1.10;0.73;;;25.00;82.80;;;;;;5032922;28;20237;-61
2022/06/07 10:02:27;;;;;;;1.65;1.00;;;25.20;84.10;;;;;;5032183;28;20214;-62
2022/06/07 10:05:04;;;;;;;2.17;0.85;;;25.30;82.50;;;;;;5032236;28;20206;-66
2022/06/07 10:07:35;;;;;;;1.95;0.80;;;25.50;82.40;;;;;;5032207;28;20309;-61
2022/06/07 10:10:08;;;;;;;1.52;0.70;;;25.90;81.00;;;;;;5028796;28;20449;-61
2022/06/07 10:12:44;;;;;;;0.55;0.50;;;26.20;78.50;;;;;;5030239;28;20225;-63
2022/06/07 10:15:25;;;;;;;2.58;0.88;;;26.40;78.00;;;;;;5031720;28;20206;-65
2022/06/07 10:18:13;;;;;;;3.08;0.90;;;26.30;76.20;;;;;;5031134;28;20213;-63
2022/06/07 10:20:54;;;;;;;1.20;0.70;;;25.70;77.00;;;;;;5031636;28;20226;-63
2022/06/07 10:23:35;;;;;;;1.70;0.80;;;25.30;77.90;;;;;;5031337;28;20210;-62
2022/06/07 10:26:14;;;;;;;2.30;0.70;;;25.10;76.70;;;;;;5031574;28;20633;-62
2022/06/07 10:28:44;;;;;;;1.08;0.75;;;24.90;76.70;;;;;;5031236;28;20210;-62
2022/06/07 10:31:21;;;;;;;2.05;1.00;;;24.90;76.60;;;;;;5031331;28;20241;-61
2022/06/07 10:33:54;;;;;;;1.35;0.90;;;25.10;77.80;;;;;;5030715;28;20210;-60
2022/06/07 10:36:36;;;;;;;2.60;0.80;;;25.30;78.10;;;;;;5031207;28;20371;-61
2022/06/07 10:39:15;;;;;;;2.45;0.80;;;25.60;77.60;;;;;;5032863;28;20292;-61
2022/06/07 10:41:50;;;;;;;1.52;0.70;;;26.10;76.30;;;;;;5034071;28;20206;-62
2022/06/07 10:44:26;;;;;;;1.60;0.90;;;26.50;74.80;;;;;;5035332;28;20216;-59
2022/06/07 10:46:53;;;;;;;3.08;1.38;;;26.80;75.00;;;;;;5034553;28;20622;-60
2022/06/07 10:49:28;;;;;;;1.02;0.52;;;27.00;74.40;;;;;;5034150;28;20238;-60
2022/06/07 10:54:54;;;;;;;1.40;0.70;;;26.80;72.40;;;;;;5034904;28;20210;-60
2022/06/07 10:57:26;;;;;;;2.28;1.83;;;27.00;71.90;;;;;;5034946;28;20654;-64
2022/06/07 10:59:53;;;;;;;2.97;1.00;;;27.30;71.90;;;;;;5035678;28;20280;-62
2022/06/07 11:02:27;;;;;;;1.63;0.80;;;27.70;72.10;;;;;;5035005;28;20206;-62
2022/06/07 11:10:38;;;;;;;3.45;1.08;;;27.70;73.70;;;;;;5035492;28;20279;-62
2022/06/07 11:13:17;;;;;;;3.47;0.85;;;27.50;74.00;;;;;;5035677;28;20206;-63
2022/06/07 11:15:51;;;;;;;2.10;1.50;;;27.50;74.60;;;;;;5035250;28;20666;-62
2022/06/07 11:18:21;;;;;;;1.30;0.90;;;27.50;75.60;;;;;;5035262;28;20213;-59
2022/06/07 11:21:10;;;;;;;0.75;0.75;;;27.50;76.30;;;;;;5035947;28;20222;-62
2022/06/07 11:23:44;;;;;;;4.07;1.23;;;27.30;75.10;;;;;;5035641;28;20214;-62
2022/06/07 11:26:14;;;;;;;4.13;1.17;;;27.00;76.10;;;;;;5036077;28;20210;-63
2022/06/07 11:28:46;;;;;;;1.35;1.00;;;26.90;76.80;;;;;;5036175;28;20245;-60
2022/06/07 11:31:41;;;;;;;3.88;0.75;;;27.10;76.10;;;;;;5058224;23;20246;-65
2022/06/07 11:34:21;;;;;;;3.50;1.08;;;27.50;75.60;;;;;;5014749;28;20618;-65
2022/06/07 11:36:50;;;;;;;3.20;1.85;;;27.70;75.00;;;;;;5014600;28;20202;-65
2022/06/07 11:39:32;;;;;;;3.15;1.10;;;27.70;75.90;;;;;;5013933;28;20428;-66
2022/06/07 11:42:29;;;;;;;0.80;0.77;;;27.60;76.20;;;;;;5014274;28;20567;-68
2022/06/07 11:45:19;;;;;;;1.73;1.10;;;27.50;75.50;;;;;;5014470;28;20588;-64
2022/06/07 11:48:17;;;;;;;2.55;1.60;;;27.30;75.40;;;;;;5014087;28;20222;-67
2022/06/07 11:50:53;;;;;;;1.25;1.00;;;27.10;74.80;;;;;;5013953;28;20733;-65
2022/06/07 11:53:27;;;;;;;1.55;0.98;;;26.90;75.10;;;;;;5013829;28;20221;-65
2022/06/07 11:56:02;;;;;;;1.17;0.80;;;26.70;75.00;;;;;;5013826;28;20682;-65
2022/06/07 11:58:51;;;;;;;4.75;1.10;;;26.70;75.80;;;;;;5014214;28;20206;-66
2022/06/07 12:01:40;;;;;;;1.33;0.82;;;26.60;74.10;;;;;;5013699;28;20234;-65
2022/06/07 12:04:28;;;;;;;1.67;1.00;;;26.50;75.40;;;;;;5010227;28;20686;-65
2022/06/07 12:06:56;;;;;;;1.33;0.90;;;26.10;76.30;;;;;;5013423;28;20238;-65
2022/06/07 12:09:26;;;;;;;3.00;1.00;;;25.90;77.00;;;;;;5013516;28;20246;-65
2022/06/07 12:11:52;;;;;;;2.65;0.95;;;25.60;76.60;;;;;;5016350;28;20225;-62
2022/06/07 12:14:26;;;;;;;2.55;1.10;;;25.50;77.70;;;;;;5031709;28;20256;-66
2022/06/07 12:16:57;;;;;;;2.45;0.80;;;25.60;78.30;;;;;;5032302;28;20333;-65
2022/06/07 12:19:27;;;;;;;2.15;1.17;;;25.80;77.80;;;;;;5032939;28;20313;-65
2022/06/07 12:21:59;;;;;;;3.08;0.50;;;26.20;76.90;;;;;;5032046;28;20207;-66
2022/06/07 12:24:29;;;;;;;2.70;0.90;;;26.60;75.70;;;;;;5032096;28;20206;-65
2022/06/07 12:26:56;;;;;;;2.88;1.10;;;26.90;75.00;;;;;;5032015;28;20272;-67
2022/06/07 12:29:25;;;;;;;2.83;1.00;;;27.20;74.40;;;;;;5031998;28;20640;-65
2022/06/07 12:31:56;;;;;;;1.45;0.80;;;27.50;73.40;;;;;;5032337;28;20233;-68
2022/06/07 12:34:24;;;;;;;2.67;0.93;;;27.70;72.60;;;;;;5032081;28;20559;-67
2022/06/07 12:36:54;;;;;;;5.55;1.00;;;27.80;71.90;;;;;;5031668;28;20214;-65
2022/06/07 12:39:21;;;;;;;5.40;0.90;;;27.70;71.40;;;;;;5032289;28;20238;-64
2022/06/07 12:41:53;;;;;;;2.22;0.95;;;27.70;70.70;;;;;;5032144;28;20249;-67
2022/06/07 12:44:29;;;;;;;1.52;1.05;;;27.50;71.50;;;;;;5022165;28;20202;-69
2022/06/07 12:46:57;;;;;;;4.38;0.88;;;27.20;70.80;;;;;;5031757;28;20212;-67
2022/06/07 12:49:27;;;;;;;3.00;0.75;;;26.80;72.60;;;;;;5032316;28;20284;-69
2022/06/07 12:52:00;;;;;;;11.43;2.40;;;26.60;74.30;;;;;;5032119;28;20233;-66
2022/06/07 12:54:28;;;;;;;4.68;0.73;;;26.50;74.50;;;;;;5031951;28;20206;-68
2022/06/07 12:56:59;;;;;;;1.88;1.08;;;26.40;73.80;;;;;;5032248;28;20250;-68
2022/06/07 12:59:33;;;;;;;1.77;1.10;;;26.10;75.50;;;;;;5031313;28;20225;-67
2022/06/07 13:02:00;;;;;;;2.40;1.00;;;26.00;76.10;;;;;;5031164;28;20202;-68
2022/06/07 13:04:35;;;;;;;4.70;1.63;;;26.00;75.90;;;;;;5031552;28;20234;-67
2022/06/07 13:07:21;;;;;;;4.68;1.30;;;26.20;75.50;;;;;;5031368;28;20697;-66
2022/06/07 13:09:49;;;;;;;4.57;1.10;;;26.30;75.10;;;;;;5031501;28;20718;-67
2022/06/07 13:12:21;;;;;;;5.43;1.38;;;26.40;74.50;;;;;;5031690;28;20316;-67
2022/06/07 13:14:48;;;;;;;3.60;1.10;;;26.60;74.80;;;;;;5031575;28;20534;-66
2022/06/07 13:17:27;;;;;;;1.27;0.70;;;26.40;75.10;;;;;;5031411;28;20214;-61
2022/06/07 13:19:54;;;;;;;1.63;0.85;;;26.60;74.70;;;;;;5031936;28;20240;-64
2022/06/07 13:22:23;;;;;;;5.25;1.25;;;26.60;74.60;;;;;;5032425;28;20205;-65
2022/06/07 13:24:54;;;;;;;1.55;0.50;;;26.60;74.70;;;;;;5032202;28;20260;-65